KCDW/CDW METAR and TAF weather

Enter ICAO airport designator
Station Type Date Time Source
KCDW METAR 2021/09/23 17:53 UTC NOAA

KCDW 231753Z 15016G28KT 10SM SCT025 BKN030 BKN038 27/21 A2989 RMK AO2 PK WND 18030/1733 SLP125 60003 T02720211 10278 20250 58013


Station Type Date Time Source
KCDW Decoded METAR 2021/09/23 17:53 UTC NOAA

CALDWELL ESSEX COUNTY AIRPORT , NJ, United States (KCDW) 40-53N 074-17W 64M
Sep 23, 2021 - 01:53 PM EDT / 2021.09.23 1753 UTC
Wind: from the SSE (150 degrees) at 18 MPH (16 KT) gusting to 32 MPH (28 KT):0
Visibility: 10 mile(s):0
Sky conditions: mostly cloudy
Temperature: 81.0 F (27.2 C)
Dew Point: 70.0 F (21.1 C)
Relative Humidity: 69%
Pressure (altimeter): 29.89 in. Hg (1012 hPa)
Pressure tendency: 0.04 inches (1.3 hPa) lower than three hours ago
ob: KCDW 231753Z 15016G28KT 10SM SCT025 BKN030 BKN038 27/21 A2989 RMK AO2 PK WND 18030/1733 SLP125 60003 T02720211 10278 20250 58013
cycle: 18

Station Type Date Time Source
KCDW TAF UTC NOAA

Error!

Example: see airport list